sensor_id;sensor_type;location;lat;lon;timestamp;P1;durP1;ratioP1;P2;durP2;ratioP2
36747;SDS011;22716;51.556;5.080;2023-04-01T00:01:25;5.23;;;4.40;;
36747;SDS011;22716;51.556;5.080;2023-04-01T00:03:54;5.93;;;4.00;;
36747;SDS011;22716;51.556;5.080;2023-04-01T00:06:24;6.47;;;4.27;;
36747;SDS011;22716;51.556;5.080;2023-04-01T00:08:53;5.73;;;5.23;;
36747;SDS011;22716;51.556;5.080;2023-04-01T00:11:22;7.53;;;4.70;;
36747;SDS011;22716;51.556;5.080;2023-04-01T00:13:55;6.97;;;5.33;;
36747;SDS011;22716;51.556;5.080;2023-04-01T00:16:24;8.30;;;5.70;;
36747;SDS011;22716;51.556;5.080;2023-04-01T00:18:52;6.40;;;5.47;;
36747;SDS011;22716;51.556;5.080;2023-04-01T00:21:21;11.00;;;6.13;;
36747;SDS011;22716;51.556;5.080;2023-04-01T00:23:50;7.30;;;5.73;;
36747;SDS011;22716;51.556;5.080;2023-04-01T00:26:19;8.67;;;5.87;;
36747;SDS011;22716;51.556;5.080;2023-04-01T00:28:50;9.00;;;6.17;;
36747;SDS011;22716;51.556;5.080;2023-04-01T00:31:21;8.87;;;7.47;;
36747;SDS011;22716;51.556;5.080;2023-04-01T00:33:51;9.00;;;6.57;;
36747;SDS011;22716;51.556;5.080;2023-04-01T00:36:20;8.63;;;6.37;;
36747;SDS011;22716;51.556;5.080;2023-04-01T00:38:49;10.90;;;6.80;;
36747;SDS011;22716;51.556;5.080;2023-04-01T00:41:18;6.83;;;6.13;;
36747;SDS011;22716;51.556;5.080;2023-04-01T00:43:48;10.80;;;7.33;;
36747;SDS011;22716;51.556;5.080;2023-04-01T00:46:21;8.20;;;7.30;;
36747;SDS011;22716;51.556;5.080;2023-04-01T00:48:51;10.27;;;6.97;;
36747;SDS011;22716;51.556;5.080;2023-04-01T00:51:27;9.57;;;7.03;;
36747;SDS011;22716;51.556;5.080;2023-04-01T00:53:58;8.40;;;7.50;;
36747;SDS011;22716;51.556;5.080;2023-04-01T00:56:30;8.17;;;6.47;;
36747;SDS011;22716;51.556;5.080;2023-04-01T01:01:38;8.73;;;6.30;;
36747;SDS011;22716;51.556;5.080;2023-04-01T01:04:18;8.27;;;6.43;;
36747;SDS011;22716;51.556;5.080;2023-04-01T01:06:51;6.73;;;5.47;;
36747;SDS011;22716;51.556;5.080;2023-04-01T01:09:27;5.60;;;4.00;;
36747;SDS011;22716;51.556;5.080;2023-04-01T01:12:05;4.43;;;3.87;;
36747;SDS011;22716;51.556;5.080;2023-04-01T01:14:43;3.63;;;2.80;;
36747;SDS011;22716;51.556;5.080;2023-04-01T01:17:25;3.83;;;2.37;;
36747;SDS011;22716;51.556;5.080;2023-04-01T01:20:08;5.87;;;2.17;;
36747;SDS011;22716;51.556;5.080;2023-04-01T01:23:09;3.40;;;2.00;;
36747;SDS011;22716;51.556;5.080;2023-04-01T01:26:16;2.20;;;1.80;;
36747;SDS011;22716;51.556;5.080;2023-04-01T01:29:05;2.07;;;1.77;;
36747;SDS011;22716;51.556;5.080;2023-04-01T01:31:46;4.10;;;1.43;;
36747;SDS011;22716;51.556;5.080;2023-04-01T01:34:25;1.50;;;1.17;;
36747;SDS011;22716;51.556;5.080;2023-04-01T01:37:05;2.13;;;1.57;;
36747;SDS011;22716;51.556;5.080;2023-04-01T01:39:39;1.60;;;1.40;;
36747;SDS011;22716;51.556;5.080;2023-04-01T01:42:13;2.83;;;2.07;;
36747;SDS011;22716;51.556;5.080;2023-04-01T01:44:46;3.67;;;2.03;;
36747;SDS011;22716;51.556;5.080;2023-04-01T01:47:17;2.53;;;2.27;;
36747;SDS011;22716;51.556;5.080;2023-04-01T01:49:48;2.80;;;2.50;;
36747;SDS011;22716;51.556;5.080;2023-04-01T01:52:22;2.27;;;2.00;;
36747;SDS011;22716;51.556;5.080;2023-04-01T01:54:53;3.57;;;1.80;;
36747;SDS011;22716;51.556;5.080;2023-04-01T01:57:23;4.77;;;2.07;;
36747;SDS011;22716;51.556;5.080;2023-04-01T01:59:54;3.97;;;2.07;;
36747;SDS011;22716;51.556;5.080;2023-04-01T02:02:27;4.00;;;1.90;;
36747;SDS011;22716;51.556;5.080;2023-04-01T02:04:58;4.40;;;2.10;;
36747;SDS011;22716;51.556;5.080;2023-04-01T02:07:30;7.90;;;2.60;;
36747;SDS011;22716;51.556;5.080;2023-04-01T02:12:31;5.73;;;2.40;;
36747;SDS011;22716;51.556;5.080;2023-04-01T02:15:03;5.93;;;2.87;;
36747;SDS011;22716;51.556;5.080;2023-04-01T02:17:37;4.07;;;2.50;;
36747;SDS011;22716;51.556;5.080;2023-04-01T02:22:44;4.00;;;2.37;;
36747;SDS011;22716;51.556;5.080;2023-04-01T02:25:17;3.60;;;2.20;;
36747;SDS011;22716;51.556;5.080;2023-04-01T02:27:49;6.17;;;2.73;;
36747;SDS011;22716;51.556;5.080;2023-04-01T02:30:19;5.77;;;3.00;;
36747;SDS011;22716;51.556;5.080;2023-04-01T02:32:49;7.67;;;3.43;;
36747;SDS011;22716;51.556;5.080;2023-04-01T02:35:18;6.60;;;4.07;;
36747;SDS011;22716;51.556;5.080;2023-04-01T02:37:50;6.60;;;4.50;;
36747;SDS011;22716;51.556;5.080;2023-04-01T02:40:21;6.70;;;5.00;;
36747;SDS011;22716;51.556;5.080;2023-04-01T02:42:50;9.00;;;5.30;;
36747;SDS011;22716;51.556;5.080;2023-04-01T02:45:18;13.03;;;5.57;;
36747;SDS011;22716;51.556;5.080;2023-04-01T02:47:47;9.77;;;5.87;;
36747;SDS011;22716;51.556;5.080;2023-04-01T02:50:16;8.80;;;5.77;;
36747;SDS011;22716;51.556;5.080;2023-04-01T02:52:45;8.93;;;5.93;;
36747;SDS011;22716;51.556;5.080;2023-04-01T02:55:16;8.10;;;5.40;;
36747;SDS011;22716;51.556;5.080;2023-04-01T02:57:45;8.57;;;5.23;;
36747;SDS011;22716;51.556;5.080;2023-04-01T03:00:14;7.90;;;4.73;;
36747;SDS011;22716;51.556;5.080;2023-04-01T03:02:44;6.70;;;4.30;;
36747;SDS011;22716;51.556;5.080;2023-04-01T03:05:13;6.37;;;3.53;;
36747;SDS011;22716;51.556;5.080;2023-04-01T03:07:42;7.80;;;4.23;;
36747;SDS011;22716;51.556;5.080;2023-04-01T03:10:11;10.23;;;4.73;;
36747;SDS011;22716;51.556;5.080;2023-04-01T03:12:43;4.33;;;3.00;;
36747;SDS011;22716;51.556;5.080;2023-04-01T03:15:11;6.20;;;3.90;;
36747;SDS011;22716;51.556;5.080;2023-04-01T03:17:41;5.97;;;3.00;;
36747;SDS011;22716;51.556;5.080;2023-04-01T03:20:12;3.60;;;2.30;;
36747;SDS011;22716;51.556;5.080;2023-04-01T03:22:41;3.23;;;2.43;;
36747;SDS011;22716;51.556;5.080;2023-04-01T03:25:11;3.07;;;2.63;;
36747;SDS011;22716;51.556;5.080;2023-04-01T03:27:40;4.53;;;2.70;;
36747;SDS011;22716;51.556;5.080;2023-04-01T03:30:11;4.77;;;2.80;;
36747;SDS011;22716;51.556;5.080;2023-04-01T03:32:40;4.73;;;3.10;;
36747;SDS011;22716;51.556;5.080;2023-04-01T03:35:09;3.87;;;3.00;;
36747;SDS011;22716;51.556;5.080;2023-04-01T03:37:39;6.20;;;3.87;;
36747;SDS011;22716;51.556;5.080;2023-04-01T03:40:09;3.87;;;3.23;;
36747;SDS011;22716;51.556;5.080;2023-04-01T03:42:39;4.00;;;3.30;;
36747;SDS011;22716;51.556;5.080;2023-04-01T03:45:11;8.23;;;3.67;;
36747;SDS011;22716;51.556;5.080;2023-04-01T03:47:40;6.63;;;4.13;;
36747;SDS011;22716;51.556;5.080;2023-04-01T03:50:09;7.43;;;4.33;;
36747;SDS011;22716;51.556;5.080;2023-04-01T03:52:38;4.87;;;4.23;;
36747;SDS011;22716;51.556;5.080;2023-04-01T03:55:07;6.73;;;4.77;;
36747;SDS011;22716;51.556;5.080;2023-04-01T03:57:39;9.57;;;5.03;;
36747;SDS011;22716;51.556;5.080;2023-04-01T04:00:08;7.83;;;4.87;;
36747;SDS011;22716;51.556;5.080;2023-04-01T04:02:40;8.83;;;4.53;;
36747;SDS011;22716;51.556;5.080;2023-04-01T04:05:09;7.37;;;4.23;;
36747;SDS011;22716;51.556;5.080;2023-04-01T04:07:38;7.50;;;4.60;;
36747;SDS011;22716;51.556;5.080;2023-04-01T04:10:08;6.37;;;3.87;;
36747;SDS011;22716;51.556;5.080;2023-04-01T04:12:37;5.63;;;4.00;;
36747;SDS011;22716;51.556;5.080;2023-04-01T04:15:06;5.53;;;3.67;;
36747;SDS011;22716;51.556;5.080;2023-04-01T04:17:38;6.60;;;3.53;;
36747;SDS011;22716;51.556;5.080;2023-04-01T04:20:07;6.50;;;3.33;;
36747;SDS011;22716;51.556;5.080;2023-04-01T04:22:37;4.60;;;3.10;;
36747;SDS011;22716;51.556;5.080;2023-04-01T04:25:06;4.73;;;3.07;;
36747;SDS011;22716;51.556;5.080;2023-04-01T04:27:36;5.20;;;3.50;;
36747;SDS011;22716;51.556;5.080;2023-04-01T04:30:08;7.90;;;4.03;;
36747;SDS011;22716;51.556;5.080;2023-04-01T04:32:40;4.57;;;3.47;;
36747;SDS011;22716;51.556;5.080;2023-04-01T04:35:09;5.20;;;3.20;;
36747;SDS011;22716;51.556;5.080;2023-04-01T04:37:38;4.07;;;3.33;;
36747;SDS011;22716;51.556;5.080;2023-04-01T04:40:07;6.20;;;3.50;;
36747;SDS011;22716;51.556;5.080;2023-04-01T04:42:36;4.03;;;3.03;;
36747;SDS011;22716;51.556;5.080;2023-04-01T04:45:06;5.17;;;2.87;;
36747;SDS011;22716;51.556;5.080;2023-04-01T04:47:35;3.53;;;3.03;;
36747;SDS011;22716;51.556;5.080;2023-04-01T04:50:08;4.40;;;3.37;;
36747;SDS011;22716;51.556;5.080;2023-04-01T04:52:38;3.70;;;3.00;;
36747;SDS011;22716;51.556;5.080;2023-04-01T04:55:07;3.40;;;2.63;;
36747;SDS011;22716;51.556;5.080;2023-04-01T04:57:36;3.53;;;2.70;;
36747;SDS011;22716;51.556;5.080;2023-04-01T05:00:06;2.37;;;2.17;;
36747;SDS011;22716;51.556;5.080;2023-04-01T05:02:36;3.43;;;3.00;;
36747;SDS011;22716;51.556;5.080;2023-04-01T05:05:08;3.17;;;2.80;;
36747;SDS011;22716;51.556;5.080;2023-04-01T05:07:37;2.90;;;2.50;;
36747;SDS011;22716;51.556;5.080;2023-04-01T05:10:08;3.47;;;2.60;;
36747;SDS011;22716;51.556;5.080;2023-04-01T05:12:37;3.57;;;2.70;;
36747;SDS011;22716;51.556;5.080;2023-04-01T05:15:07;4.17;;;3.60;;
36747;SDS011;22716;51.556;5.080;2023-04-01T05:17:36;6.63;;;3.60;;
36747;SDS011;22716;51.556;5.080;2023-04-01T05:20:09;4.33;;;3.43;;
36747;SDS011;22716;51.556;5.080;2023-04-01T05:25:08;5.60;;;4.33;;
36747;SDS011;22716;51.556;5.080;2023-04-01T05:27:37;7.77;;;3.87;;
36747;SDS011;22716;51.556;5.080;2023-04-01T05:30:07;5.57;;;3.80;;
36747;SDS011;22716;51.556;5.080;2023-04-01T05:32:36;6.50;;;4.73;;
36747;SDS011;22716;51.556;5.080;2023-04-01T05:35:08;6.20;;;4.83;;
36747;SDS011;22716;51.556;5.080;2023-04-01T05:37:38;9.30;;;4.73;;
36747;SDS011;22716;51.556;5.080;2023-04-01T05:40:07;9.90;;;5.20;;
36747;SDS011;22716;51.556;5.080;2023-04-01T05:42:37;6.47;;;4.90;;
36747;SDS011;22716;51.556;5.080;2023-04-01T05:45:07;7.63;;;5.33;;
36747;SDS011;22716;51.556;5.080;2023-04-01T05:47:36;8.10;;;5.13;;
36747;SDS011;22716;51.556;5.080;2023-04-01T05:50:08;6.97;;;4.73;;
36747;SDS011;22716;51.556;5.080;2023-04-01T05:52:38;6.93;;;5.27;;
36747;SDS011;22716;51.556;5.080;2023-04-01T05:55:08;7.70;;;4.93;;
36747;SDS011;22716;51.556;5.080;2023-04-01T05:57:37;7.73;;;5.13;;
36747;SDS011;22716;51.556;5.080;2023-04-01T06:00:06;8.80;;;5.80;;
36747;SDS011;22716;51.556;5.080;2023-04-01T06:02:36;6.20;;;4.73;;
36747;SDS011;22716;51.556;5.080;2023-04-01T06:05:14;6.80;;;5.07;;
36747;SDS011;22716;51.556;5.080;2023-04-01T06:07:45;6.40;;;5.30;;
36747;SDS011;22716;51.556;5.080;2023-04-01T06:10:15;8.70;;;5.57;;
36747;SDS011;22716;51.556;5.080;2023-04-01T06:12:49;10.03;;;6.50;;
36747;SDS011;22716;51.556;5.080;2023-04-01T06:15:31;12.83;;;7.83;;
36747;SDS011;22716;51.556;5.080;2023-04-01T06:21:07;17.00;;;7.33;;
36747;SDS011;22716;51.556;5.080;2023-04-01T06:23:51;11.80;;;7.43;;
36747;SDS011;22716;51.556;5.080;2023-04-01T06:26:33;11.85;;;7.78;;
36747;SDS011;22716;51.556;5.080;2023-04-01T06:29:12;12.00;;;8.97;;
36747;SDS011;22716;51.556;5.080;2023-04-01T06:32:09;14.07;;;9.63;;
36747;SDS011;22716;51.556;5.080;2023-04-01T06:37:52;13.73;;;9.60;;
36747;SDS011;22716;51.556;5.080;2023-04-01T06:40:38;15.70;;;10.73;;
36747;SDS011;22716;51.556;5.080;2023-04-01T06:43:21;15.20;;;10.43;;
36747;SDS011;22716;51.556;5.080;2023-04-01T06:46:02;16.03;;;10.57;;
36747;SDS011;22716;51.556;5.080;2023-04-01T06:48:46;15.83;;;11.23;;
36747;SDS011;22716;51.556;5.080;2023-04-01T06:51:32;17.70;;;11.63;;
36747;SDS011;22716;51.556;5.080;2023-04-01T06:54:14;16.50;;;10.87;;
36747;SDS011;22716;51.556;5.080;2023-04-01T06:56:48;18.77;;;11.77;;
36747;SDS011;22716;51.556;5.080;2023-04-01T06:59:25;22.57;;;12.20;;
36747;SDS011;22716;51.556;5.080;2023-04-01T07:01:59;19.10;;;11.37;;
36747;SDS011;22716;51.556;5.080;2023-04-01T07:04:33;20.03;;;11.90;;
36747;SDS011;22716;51.556;5.080;2023-04-01T07:07:08;16.97;;;10.80;;
36747;SDS011;22716;51.556;5.080;2023-04-01T07:09:48;24.07;;;12.10;;
36747;SDS011;22716;51.556;5.080;2023-04-01T07:12:21;23.13;;;12.40;;
36747;SDS011;22716;51.556;5.080;2023-04-01T07:15:02;19.93;;;12.40;;
36747;SDS011;22716;51.556;5.080;2023-04-01T07:17:40;18.73;;;11.70;;
36747;SDS011;22716;51.556;5.080;2023-04-01T07:20:13;20.83;;;11.77;;
36747;SDS011;22716;51.556;5.080;2023-04-01T07:22:49;18.47;;;11.00;;
36747;SDS011;22716;51.556;5.080;2023-04-01T07:25:24;19.90;;;12.40;;
36747;SDS011;22716;51.556;5.080;2023-04-01T07:27:59;20.80;;;13.57;;
36747;SDS011;22716;51.556;5.080;2023-04-01T07:30:33;20.37;;;12.53;;
36747;SDS011;22716;51.556;5.080;2023-04-01T07:33:11;17.33;;;11.33;;
36747;SDS011;22716;51.556;5.080;2023-04-01T07:35:48;21.50;;;12.93;;
36747;SDS011;22716;51.556;5.080;2023-04-01T07:38:28;28.57;;;13.03;;
36747;SDS011;22716;51.556;5.080;2023-04-01T07:41:12;20.77;;;11.63;;
36747;SDS011;22716;51.556;5.080;2023-04-01T07:43:53;16.77;;;10.60;;
36747;SDS011;22716;51.556;5.080;2023-04-01T07:49:43;24.77;;;11.40;;
36747;SDS011;22716;51.556;5.080;2023-04-01T07:52:23;18.77;;;10.77;;
36747;SDS011;22716;51.556;5.080;2023-04-01T07:55:01;15.23;;;9.63;;
36747;SDS011;22716;51.556;5.080;2023-04-01T07:57:41;16.77;;;11.43;;
36747;SDS011;22716;51.556;5.080;2023-04-01T08:00:19;18.53;;;11.60;;
36747;SDS011;22716;51.556;5.080;2023-04-01T08:03:02;18.73;;;11.33;;
36747;SDS011;22716;51.556;5.080;2023-04-01T08:05:47;17.30;;;11.25;;
36747;SDS011;22716;51.556;5.080;2023-04-01T08:08:26;12.40;;;9.63;;
36747;SDS011;22716;51.556;5.080;2023-04-01T08:11:12;14.47;;;10.37;;
36747;SDS011;22716;51.556;5.080;2023-04-01T08:13:55;15.07;;;9.53;;
36747;SDS011;22716;51.556;5.080;2023-04-01T08:16:35;15.47;;;10.87;;
36747;SDS011;22716;51.556;5.080;2023-04-01T08:19:15;15.97;;;11.60;;
36747;SDS011;22716;51.556;5.080;2023-04-01T08:22:01;16.53;;;10.60;;
36747;SDS011;22716;51.556;5.080;2023-04-01T08:24:38;14.70;;;11.00;;
36747;SDS011;22716;51.556;5.080;2023-04-01T08:27:12;21.00;;;10.50;;
36747;SDS011;22716;51.556;5.080;2023-04-01T08:29:53;18.57;;;10.57;;
36747;SDS011;22716;51.556;5.080;2023-04-01T08:32:28;20.83;;;10.97;;
36747;SDS011;22716;51.556;5.080;2023-04-01T08:35:07;19.83;;;10.60;;
36747;SDS011;22716;51.556;5.080;2023-04-01T08:37:38;14.67;;;9.90;;
36747;SDS011;22716;51.556;5.080;2023-04-01T08:40:16;12.17;;;8.97;;
36747;SDS011;22716;51.556;5.080;2023-04-01T08:43:07;16.40;;;9.70;;
36747;SDS011;22716;51.556;5.080;2023-04-01T08:45:56;17.43;;;11.37;;
36747;SDS011;22716;51.556;5.080;2023-04-01T08:48:57;17.93;;;9.43;;
36747;SDS011;22716;51.556;5.080;2023-04-01T08:51:50;15.23;;;9.03;;
36747;SDS011;22716;51.556;5.080;2023-04-01T08:54:42;16.73;;;9.60;;
36747;SDS011;22716;51.556;5.080;2023-04-01T09:00:07;14.03;;;9.30;;
36747;SDS011;22716;51.556;5.080;2023-04-01T09:02:51;13.37;;;9.90;;
36747;SDS011;22716;51.556;5.080;2023-04-01T09:09:02;14.30;;;8.50;;
36747;SDS011;22716;51.556;5.080;2023-04-01T09:18:05;12.13;;;8.30;;
36747;SDS011;22716;51.556;5.080;2023-04-01T09:20:59;12.10;;;7.53;;
36747;SDS011;22716;51.556;5.080;2023-04-01T09:23:48;11.50;;;7.53;;
36747;SDS011;22716;51.556;5.080;2023-04-01T09:26:43;13.83;;;8.10;;
36747;SDS011;22716;51.556;5.080;2023-04-01T09:29:30;10.20;;;6.00;;
36747;SDS011;22716;51.556;5.080;2023-04-01T09:32:27;11.60;;;7.93;;
36747;SDS011;22716;51.556;5.080;2023-04-01T09:35:23;8.30;;;6.67;;
36747;SDS011;22716;51.556;5.080;2023-04-01T09:37:53;14.17;;;7.80;;
36747;SDS011;22716;51.556;5.080;2023-04-01T09:40:31;10.53;;;7.23;;
36747;SDS011;22716;51.556;5.080;2023-04-01T09:43:27;11.07;;;8.23;;
36747;SDS011;22716;51.556;5.080;2023-04-01T09:46:10;11.63;;;7.63;;
36747;SDS011;22716;51.556;5.080;2023-04-01T09:51:55;12.67;;;8.27;;
36747;SDS011;22716;51.556;5.080;2023-04-01T09:54:45;10.00;;;8.23;;
36747;SDS011;22716;51.556;5.080;2023-04-01T09:57:48;13.10;;;7.17;;
36747;SDS011;22716;51.556;5.080;2023-04-01T10:00:50;11.57;;;9.07;;
36747;SDS011;22716;51.556;5.080;2023-04-01T10:03:58;10.90;;;7.80;;
36747;SDS011;22716;51.556;5.080;2023-04-01T10:07:03;10.63;;;7.67;;
36747;SDS011;22716;51.556;5.080;2023-04-01T10:10:10;14.60;;;8.30;;
36747;SDS011;22716;51.556;5.080;2023-04-01T10:13:02;9.77;;;8.43;;
36747;SDS011;22716;51.556;5.080;2023-04-01T10:15:53;12.50;;;9.33;;
36747;SDS011;22716;51.556;5.080;2023-04-01T10:18:56;17.77;;;9.85;;
36747;SDS011;22716;51.556;5.080;2023-04-01T10:21:56;14.47;;;10.03;;
36747;SDS011;22716;51.556;5.080;2023-04-01T10:24:45;13.80;;;9.70;;
36747;SDS011;22716;51.556;5.080;2023-04-01T10:27:45;23.10;;;9.10;;
36747;SDS011;22716;51.556;5.080;2023-04-01T10:30:40;12.53;;;9.60;;
36747;SDS011;22716;51.556;5.080;2023-04-01T10:36:40;16.37;;;10.00;;
36747;SDS011;22716;51.556;5.080;2023-04-01T10:42:31;11.93;;;9.60;;
36747;SDS011;22716;51.556;5.080;2023-04-01T10:45:50;14.77;;;9.70;;
36747;SDS011;22716;51.556;5.080;2023-04-01T10:52:00;17.47;;;9.23;;
36747;SDS011;22716;51.556;5.080;2023-04-01T10:54:51;11.43;;;8.70;;
36747;SDS011;22716;51.556;5.080;2023-04-01T11:00:56;13.63;;;8.83;;
36747;SDS011;22716;51.556;5.080;2023-04-01T11:16:01;15.43;;;8.97;;
36747;SDS011;22716;51.556;5.080;2023-04-01T11:21:55;14.30;;;9.33;;
36747;SDS011;22716;51.556;5.080;2023-04-01T11:25:06;13.83;;;8.10;;
36747;SDS011;22716;51.556;5.080;2023-04-01T11:28:05;17.80;;;9.73;;
36747;SDS011;22716;51.556;5.080;2023-04-01T11:30:56;11.02;;;8.88;;
36747;SDS011;22716;51.556;5.080;2023-04-01T11:33:36;13.45;;;8.60;;
36747;SDS011;22716;51.556;5.080;2023-04-01T11:36:17;10.27;;;8.63;;
36747;SDS011;22716;51.556;5.080;2023-04-01T11:39:01;11.83;;;7.67;;
36747;SDS011;22716;51.556;5.080;2023-04-01T11:41:41;12.50;;;7.80;;
36747;SDS011;22716;51.556;5.080;2023-04-01T11:44:18;10.43;;;7.33;;
36747;SDS011;22716;51.556;5.080;2023-04-01T11:46:56;8.30;;;7.27;;
36747;SDS011;22716;51.556;5.080;2023-04-01T11:49:49;11.73;;;7.53;;
36747;SDS011;22716;51.556;5.080;2023-04-01T11:52:34;12.90;;;7.47;;
36747;SDS011;22716;51.556;5.080;2023-04-01T11:55:30;9.43;;;6.67;;
36747;SDS011;22716;51.556;5.080;2023-04-01T12:01:03;8.93;;;7.10;;
36747;SDS011;22716;51.556;5.080;2023-04-01T12:03:54;10.80;;;7.00;;
36747;SDS011;22716;51.556;5.080;2023-04-01T12:06:48;10.03;;;7.10;;
36747;SDS011;22716;51.556;5.080;2023-04-01T12:09:25;11.00;;;6.70;;
36747;SDS011;22716;51.556;5.080;2023-04-01T12:12:11;9.80;;;7.13;;
36747;SDS011;22716;51.556;5.080;2023-04-01T12:14:48;11.43;;;7.57;;
36747;SDS011;22716;51.556;5.080;2023-04-01T12:17:30;11.90;;;9.33;;
36747;SDS011;22716;51.556;5.080;2023-04-01T12:20:28;15.00;;;9.70;;
36747;SDS011;22716;51.556;5.080;2023-04-01T12:23:13;14.80;;;9.13;;
36747;SDS011;22716;51.556;5.080;2023-04-01T12:25:58;14.83;;;8.10;;
36747;SDS011;22716;51.556;5.080;2023-04-01T12:28:41;13.17;;;8.77;;
36747;SDS011;22716;51.556;5.080;2023-04-01T12:31:26;14.83;;;9.67;;
36747;SDS011;22716;51.556;5.080;2023-04-01T12:37:06;8.60;;;5.50;;
36747;SDS011;22716;51.556;5.080;2023-04-01T12:39:50;8.53;;;5.53;;
36747;SDS011;22716;51.556;5.080;2023-04-01T12:42:32;10.33;;;5.60;;
36747;SDS011;22716;51.556;5.080;2023-04-01T12:51:20;8.27;;;6.33;;
36747;SDS011;22716;51.556;5.080;2023-04-01T12:54:17;9.20;;;5.53;;
36747;SDS011;22716;51.556;5.080;2023-04-01T12:57:05;8.30;;;5.37;;
36747;SDS011;22716;51.556;5.080;2023-04-01T12:59:55;7.00;;;5.53;;
36747;SDS011;22716;51.556;5.080;2023-04-01T13:02:39;8.90;;;5.77;;
36747;SDS011;22716;51.556;5.080;2023-04-01T13:05:24;6.60;;;5.57;;
36747;SDS011;22716;51.556;5.080;2023-04-01T13:08:16;9.77;;;5.73;;
36747;SDS011;22716;51.556;5.080;2023-04-01T13:11:05;8.73;;;5.17;;
36747;SDS011;22716;51.556;5.080;2023-04-01T13:16:46;8.70;;;5.33;;
36747;SDS011;22716;51.556;5.080;2023-04-01T13:19:23;6.10;;;5.17;;
36747;SDS011;22716;51.556;5.080;2023-04-01T13:21:58;5.60;;;4.77;;
36747;SDS011;22716;51.556;5.080;2023-04-01T13:24:40;6.57;;;5.13;;
36747;SDS011;22716;51.556;5.080;2023-04-01T13:27:17;6.17;;;5.13;;
36747;SDS011;22716;51.556;5.080;2023-04-01T13:29:57;6.07;;;5.40;;
36747;SDS011;22716;51.556;5.080;2023-04-01T13:32:37;5.93;;;4.50;;
36747;SDS011;22716;51.556;5.080;2023-04-01T13:35:17;9.67;;;5.67;;
36747;SDS011;22716;51.556;5.080;2023-04-01T13:38:06;7.03;;;4.77;;
36747;SDS011;22716;51.556;5.080;2023-04-01T13:40:48;8.83;;;4.23;;
36747;SDS011;22716;51.556;5.080;2023-04-01T13:43:25;5.70;;;4.80;;
36747;SDS011;22716;51.556;5.080;2023-04-01T13:46:17;7.33;;;4.47;;
36747;SDS011;22716;51.556;5.080;2023-04-01T13:49:12;6.63;;;4.90;;
36747;SDS011;22716;51.556;5.080;2023-04-01T13:52:02;6.40;;;5.37;;
36747;SDS011;22716;51.556;5.080;2023-04-01T14:01:00;7.33;;;4.30;;
36747;SDS011;22716;51.556;5.080;2023-04-01T14:06:45;4.87;;;4.10;;
36747;SDS011;22716;51.556;5.080;2023-04-01T14:09:29;8.10;;;4.50;;
36747;SDS011;22716;51.556;5.080;2023-04-01T14:12:13;6.67;;;4.60;;
36747;SDS011;22716;51.556;5.080;2023-04-01T14:15:02;7.53;;;4.47;;
36747;SDS011;22716;51.556;5.080;2023-04-01T14:17:53;8.67;;;6.07;;
36747;SDS011;22716;51.556;5.080;2023-04-01T14:20:36;10.80;;;5.83;;
36747;SDS011;22716;51.556;5.080;2023-04-01T14:23:23;6.90;;;5.00;;
36747;SDS011;22716;51.556;5.080;2023-04-01T14:26:11;9.60;;;5.20;;
36747;SDS011;22716;51.556;5.080;2023-04-01T14:28:57;7.97;;;5.93;;
36747;SDS011;22716;51.556;5.080;2023-04-01T14:31:42;10.47;;;5.63;;
36747;SDS011;22716;51.556;5.080;2023-04-01T14:34:26;7.47;;;6.20;;
36747;SDS011;22716;51.556;5.080;2023-04-01T14:37:08;8.60;;;6.10;;
36747;SDS011;22716;51.556;5.080;2023-04-01T14:40:20;12.20;;;7.77;;
36747;SDS011;22716;51.556;5.080;2023-04-01T14:43:01;12.20;;;7.97;;
36747;SDS011;22716;51.556;5.080;2023-04-01T14:48:33;12.63;;;8.70;;
36747;SDS011;22716;51.556;5.080;2023-04-01T14:51:09;10.87;;;8.60;;
36747;SDS011;22716;51.556;5.080;2023-04-01T14:53:50;15.03;;;8.60;;
36747;SDS011;22716;51.556;5.080;2023-04-01T14:56:37;13.13;;;8.40;;
36747;SDS011;22716;51.556;5.080;2023-04-01T14:59:09;11.23;;;8.33;;
36747;SDS011;22716;51.556;5.080;2023-04-01T15:01:45;11.90;;;8.10;;
36747;SDS011;22716;51.556;5.080;2023-04-01T15:10:31;13.93;;;9.75;;
36747;SDS011;22716;51.556;5.080;2023-04-01T15:13:13;12.77;;;8.00;;
36747;SDS011;22716;51.556;5.080;2023-04-01T15:15:47;10.83;;;7.83;;
36747;SDS011;22716;51.556;5.080;2023-04-01T15:18:34;10.33;;;7.93;;
36747;SDS011;22716;51.556;5.080;2023-04-01T15:21:16;14.23;;;7.77;;
36747;SDS011;22716;51.556;5.080;2023-04-01T15:23:54;8.60;;;6.30;;
36747;SDS011;22716;51.556;5.080;2023-04-01T15:26:31;10.23;;;7.23;;
36747;SDS011;22716;51.556;5.080;2023-04-01T15:29:34;10.90;;;7.10;;
36747;SDS011;22716;51.556;5.080;2023-04-01T15:32:27;7.30;;;6.30;;
36747;SDS011;22716;51.556;5.080;2023-04-01T15:35:13;8.47;;;7.33;;
36747;SDS011;22716;51.556;5.080;2023-04-01T15:37:58;12.43;;;9.07;;
36747;SDS011;22716;51.556;5.080;2023-04-01T15:40:36;10.80;;;7.30;;
36747;SDS011;22716;51.556;5.080;2023-04-01T15:43:16;15.87;;;9.23;;
36747;SDS011;22716;51.556;5.080;2023-04-01T15:46:09;10.83;;;7.93;;
36747;SDS011;22716;51.556;5.080;2023-04-01T15:48:51;10.43;;;6.87;;
36747;SDS011;22716;51.556;5.080;2023-04-01T15:51:56;12.73;;;9.47;;
36747;SDS011;22716;51.556;5.080;2023-04-01T15:57:43;9.30;;;7.70;;
36747;SDS011;22716;51.556;5.080;2023-04-01T16:00:30;13.20;;;8.77;;
36747;SDS011;22716;51.556;5.080;2023-04-01T16:03:15;13.67;;;8.17;;
36747;SDS011;22716;51.556;5.080;2023-04-01T16:05:52;10.93;;;8.20;;
36747;SDS011;22716;51.556;5.080;2023-04-01T16:11:33;11.00;;;8.33;;
36747;SDS011;22716;51.556;5.080;2023-04-01T16:14:22;15.33;;;9.10;;
36747;SDS011;22716;51.556;5.080;2023-04-01T16:17:03;17.37;;;9.27;;
36747;SDS011;22716;51.556;5.080;2023-04-01T16:19:51;10.80;;;8.13;;
36747;SDS011;22716;51.556;5.080;2023-04-01T16:22:24;12.37;;;8.87;;
36747;SDS011;22716;51.556;5.080;2023-04-01T16:25:17;12.37;;;8.67;;
36747;SDS011;22716;51.556;5.080;2023-04-01T16:27:50;14.67;;;9.10;;
36747;SDS011;22716;51.556;5.080;2023-04-01T16:30:35;16.13;;;9.40;;
36747;SDS011;22716;51.556;5.080;2023-04-01T16:33:09;13.33;;;9.43;;
36747;SDS011;22716;51.556;5.080;2023-04-01T16:35:43;16.03;;;10.10;;
36747;SDS011;22716;51.556;5.080;2023-04-01T16:38:19;12.73;;;8.37;;
36747;SDS011;22716;51.556;5.080;2023-04-01T16:41:00;15.00;;;8.57;;
36747;SDS011;22716;51.556;5.080;2023-04-01T16:43:41;13.17;;;7.20;;
36747;SDS011;22716;51.556;5.080;2023-04-01T16:49:17;17.40;;;7.83;;
36747;SDS011;22716;51.556;5.080;2023-04-01T16:51:54;14.00;;;9.50;;
36747;SDS011;22716;51.556;5.080;2023-04-01T16:54:35;9.93;;;6.83;;
36747;SDS011;22716;51.556;5.080;2023-04-01T16:57:14;11.20;;;7.43;;
36747;SDS011;22716;51.556;5.080;2023-04-01T16:59:48;10.00;;;7.03;;
36747;SDS011;22716;51.556;5.080;2023-04-01T17:02:28;10.87;;;7.30;;
36747;SDS011;22716;51.556;5.080;2023-04-01T17:05:03;9.87;;;6.93;;
36747;SDS011;22716;51.556;5.080;2023-04-01T17:07:38;7.60;;;6.20;;
36747;SDS011;22716;51.556;5.080;2023-04-01T17:16:01;8.10;;;6.97;;
36747;SDS011;22716;51.556;5.080;2023-04-01T17:18:53;19.80;;;11.77;;
36747;SDS011;22716;51.556;5.080;2023-04-01T17:21:31;16.80;;;11.00;;
36747;SDS011;22716;51.556;5.080;2023-04-01T17:24:21;12.17;;;7.73;;
36747;SDS011;22716;51.556;5.080;2023-04-01T17:26:58;11.83;;;6.67;;
36747;SDS011;22716;51.556;5.080;2023-04-01T17:29:39;9.50;;;7.40;;
36747;SDS011;22716;51.556;5.080;2023-04-01T17:32:12;11.10;;;7.90;;
36747;SDS011;22716;51.556;5.080;2023-04-01T17:34:55;11.43;;;7.70;;
36747;SDS011;22716;51.556;5.080;2023-04-01T17:37:37;8.32;;;6.55;;
36747;SDS011;22716;51.556;5.080;2023-04-01T17:40:17;11.40;;;6.80;;
36747;SDS011;22716;51.556;5.080;2023-04-01T17:42:57;10.47;;;7.23;;